Norwegian Crown — C6II4 — position and weather

sailwx.info

Track history (hours):
 
Tides and Currents Weather Stations Pressure Air Temp Water Temp Dewpoint Dewpoint Depression Visibility Wind Speed Wind Dir Waves Ship Positions

Norwegian Crown

Operator: Norwegian Cruise Line

Last reported at 2015-Jan-11 18:25 UTC. Time now 2015-Jan-29 16:27 UTC.
Position N 35°43' E 015°16'.
Warning: this ship's position is 17 days out of date.

Type: Passenger vessel. MMSI: 308785000.

Date/timePositionNaut miles runAvg speedWind from/ knotsBaromVisibWave heightAir tempDewpointWater temp
2015-Jan-11 18:25N 35°43' E 015°16'1517.2
2015-Jan-11 17:32N 35°48' E 014°58'1717.1
2015-Jan-11 16:34N 35°54' E 014°39'10 0.9
2015-Jan-11 05:21N 36°00' E 014°29'4214.9
2015-Jan-11 02:31N 36°21' E 013°43'1716.5
2015-Jan-11 01:30N 36°29' E 013°25'21914.6
2015-Jan-10 10:30N 37°52' E 009°09'  
2015-Jan-07 05:33N 37°47' W 009°49'1916.8
2015-Jan-07 04:24N 38°06' W 009°55'1516.9
2015-Jan-07 03:32N 38°20' W 009°60'1716.8
2015-Jan-07 02:30N 38°37' W 010°05'2116.5
2015-Jan-07 01:14N 38°58' W 010°06'63815.5
2015-Jan-05 08:07N 49°04' W 005°31'10415.8
2015-Jan-05 01:30N 50°04' W 003°19'1718.3
2015-Jan-05 00:33N 50°09' W 002°53'2618.0
2015-Jan-04 23:05N 50°17' W 002°14'916.6
2015-Jan-04 22:34N 50°19' W 002°01'2015.5
2015-Jan-04 21:16N 50°25' W 001°31'1014.6
2015-Jan-04 20:34N 50°29' W 001°15'1413.6
2015-Jan-04 19:33N 50°38' W 000°59'1212.2
2015-Jan-04 18:33N 50°46' W 001°14'1010.0
2015-Jan-04 17:33N 50°53' W 001°24'1 0.8
2015-Jan-04 16:33N 50°54' W 001°25'0 0.0
2015-Jan-04 15:33N 50°54' W 001°25'0 0.0
2015-Jan-04 14:33N 50°54' W 001°25'0 0.0
2015-Jan-04 13:33N 50°54' W 001°25'0 0.0
2015-Jan-04 12:33N 50°54' W 001°25'0 0.0
2015-Jan-04 11:33N 50°54' W 001°25'0 0.0
2015-Jan-04 10:30N 50°54' W 001°25'0 0.0
2015-Jan-04 09:30N 50°54' W 001°25'0 0.0
2015-Jan-04 08:30N 50°54' W 001°25'0 0.0
2015-Jan-04 07:30N 50°54' W 001°25'0 0.0
2015-Jan-04 06:34N 50°54' W 001°25'7 6.8
2015-Jan-04 05:33N 50°49' W 001°18'1111.4
2015-Jan-04 04:34N 50°44' W 001°02'1110.9
2015-Jan-04 03:33N 50°33' W 001°03'8210.2
2015-Jan-03 19:30N 50°07' W 003°05'70315.2
2015-Jan-01 21:15N 39°25' W 009°51'1216.7
2015-Jan-01 20:31N 39°13' W 009°51'1616.6
2015-Jan-01 19:33N 38°57' W 009°52'1616.4
2015-Jan-01 18:33N 38°41' W 009°51'  
Track history (hours):
 
Tides and Currents Weather Stations Pressure Air Temp Water Temp Dewpoint Dewpoint Depression Visibility Wind Speed Wind Dir Waves Ship Positions

Norwegian Crown

Operator: Norwegian Cruise Line

Last reported at 2015-Jan-11 18:25 UTC. Time now 2015-Jan-29 16:27 UTC.
Position N 35°43' E 015°16'.
Warning: this ship's position is 17 days out of date.

Type: Passenger vessel. MMSI: 308785000.

Date/timePositionNaut miles runAvg speedWind from/ knotsBaromVisibWave heightAir tempDewpointWater temp
2015-Jan-11 18:25N 35°43' E 015°16'1517.2
2015-Jan-11 17:32N 35°48' E 014°58'1717.1
2015-Jan-11 16:34N 35°54' E 014°39'10 0.9
2015-Jan-11 05:21N 36°00' E 014°29'4214.9
2015-Jan-11 02:31N 36°21' E 013°43'1716.5
2015-Jan-11 01:30N 36°29' E 013°25'21914.6
2015-Jan-10 10:30N 37°52' E 009°09'  
2015-Jan-07 05:33N 37°47' W 009°49'1916.8
2015-Jan-07 04:24N 38°06' W 009°55'1516.9
2015-Jan-07 03:32N 38°20' W 009°60'1716.8
2015-Jan-07 02:30N 38°37' W 010°05'2116.5
2015-Jan-07 01:14N 38°58' W 010°06'63815.5
2015-Jan-05 08:07N 49°04' W 005°31'10415.8
2015-Jan-05 01:30N 50°04' W 003°19'1718.3
2015-Jan-05 00:33N 50°09' W 002°53'2618.0
2015-Jan-04 23:05N 50°17' W 002°14'916.6
2015-Jan-04 22:34N 50°19' W 002°01'2015.5
2015-Jan-04 21:16N 50°25' W 001°31'1014.6
2015-Jan-04 20:34N 50°29' W 001°15'1413.6
2015-Jan-04 19:33N 50°38' W 000°59'1212.2
2015-Jan-04 18:33N 50°46' W 001°14'1010.0
2015-Jan-04 17:33N 50°53' W 001°24'1 0.8
2015-Jan-04 16:33N 50°54' W 001°25'0 0.0
2015-Jan-04 15:33N 50°54' W 001°25'0 0.0
2015-Jan-04 14:33N 50°54' W 001°25'0 0.0
2015-Jan-04 13:33N 50°54' W 001°25'0 0.0
2015-Jan-04 12:33N 50°54' W 001°25'0 0.0
2015-Jan-04 11:33N 50°54' W 001°25'0 0.0
2015-Jan-04 10:30N 50°54' W 001°25'0 0.0
2015-Jan-04 09:30N 50°54' W 001°25'0 0.0
2015-Jan-04 08:30N 50°54' W 001°25'0 0.0
2015-Jan-04 07:30N 50°54' W 001°25'0 0.0
2015-Jan-04 06:34N 50°54' W 001°25'7 6.8
2015-Jan-04 05:33N 50°49' W 001°18'1111.4
2015-Jan-04 04:34N 50°44' W 001°02'1110.9
2015-Jan-04 03:33N 50°33' W 001°03'8210.2
2015-Jan-03 19:30N 50°07' W 003°05'70315.2
2015-Jan-01 21:15N 39°25' W 009°51'1216.7
2015-Jan-01 20:31N 39°13' W 009°51'1616.6
2015-Jan-01 19:33N 38°57' W 009°52'1616.4
2015-Jan-01 18:33N 38°41' W 009°51'  

Dump ship's entire track history